sensor_id;sensor_type;location;lat;lon;timestamp;temperature;humidity
48604;DHT22;32708;51.212;6.788;2023-06-01T00:02:09;17.90;99.90
48604;DHT22;32708;51.212;6.788;2023-06-01T00:04:38;18.00;99.90
48604;DHT22;32708;51.212;6.788;2023-06-01T00:07:07;17.90;99.90
48604;DHT22;32708;51.212;6.788;2023-06-01T00:09:34;17.80;99.90
48604;DHT22;32708;51.212;6.788;2023-06-01T00:12:00;17.80;99.90
48604;DHT22;32708;51.212;6.788;2023-06-01T00:14:26;17.70;99.90
48604;DHT22;32708;51.212;6.788;2023-06-01T00:16:52;17.80;99.90
48604;DHT22;32708;51.212;6.788;2023-06-01T00:19:21;17.70;99.90
48604;DHT22;32708;51.212;6.788;2023-06-01T00:21:47;17.60;99.90
48604;DHT22;32708;51.212;6.788;2023-06-01T00:24:13;17.60;99.90
48604;DHT22;32708;51.212;6.788;2023-06-01T00:26:40;17.60;99.90
48604;DHT22;32708;51.212;6.788;2023-06-01T00:29:06;17.40;1.00
48604;DHT22;32708;51.212;6.788;2023-06-01T00:31:32;17.40;1.00
48604;DHT22;32708;51.212;6.788;2023-06-01T00:33:59;17.50;1.00
48604;DHT22;32708;51.212;6.788;2023-06-01T00:36:25;17.40;1.00
48604;DHT22;32708;51.212;6.788;2023-06-01T00:38:51;17.30;1.00
48604;DHT22;32708;51.212;6.788;2023-06-01T00:41:17;17.30;1.00
48604;DHT22;32708;51.212;6.788;2023-06-01T00:43:43;17.20;1.00
48604;DHT22;32708;51.212;6.788;2023-06-01T00:46:09;17.20;1.00
48604;DHT22;32708;51.212;6.788;2023-06-01T00:48:37;17.20;1.00
48604;DHT22;32708;51.212;6.788;2023-06-01T00:51:03;17.10;1.00
48604;DHT22;32708;51.212;6.788;2023-06-01T00:53:30;17.20;1.00
48604;DHT22;32708;51.212;6.788;2023-06-01T00:55:56;17.10;1.00
48604;DHT22;32708;51.212;6.788;2023-06-01T00:58:22;17.20;1.00
48604;DHT22;32708;51.212;6.788;2023-06-01T01:00:49;17.10;1.00
48604;DHT22;32708;51.212;6.788;2023-06-01T01:03:15;17.00;1.00
48604;DHT22;32708;51.212;6.788;2023-06-01T01:05:41;16.90;6.80
48604;DHT22;32708;51.212;6.788;2023-06-01T01:08:31;16.80;12.50
48604;DHT22;32708;51.212;6.788;2023-06-01T01:11:18;16.80;18.20
48604;DHT22;32708;51.212;6.788;2023-06-01T01:13:58;16.80;20.40
48604;DHT22;32708;51.212;6.788;2023-06-01T01:17:01;16.70;25.50
48604;DHT22;32708;51.212;6.788;2023-06-01T01:20:06;16.70;31.10
48604;DHT22;32708;51.212;6.788;2023-06-01T01:30:54;16.50;46.80
48604;DHT22;32708;51.212;6.788;2023-06-01T01:33:24;16.50;53.00
48604;DHT22;32708;51.212;6.788;2023-06-01T01:35:53;16.40;54.90
48604;DHT22;32708;51.212;6.788;2023-06-01T01:38:20;16.30;63.50
48604;DHT22;32708;51.212;6.788;2023-06-01T01:40:46;16.20;66.90
48604;DHT22;32708;51.212;6.788;2023-06-01T01:43:13;16.20;72.00
48604;DHT22;32708;51.212;6.788;2023-06-01T01:45:39;16.10;75.30
48604;DHT22;32708;51.212;6.788;2023-06-01T01:48:32;16.00;79.70
48604;DHT22;32708;51.212;6.788;2023-06-01T01:51:16;16.00;84.80
48604;DHT22;32708;51.212;6.788;2023-06-01T01:53:51;16.00;80.00
48604;DHT22;32708;51.212;6.788;2023-06-01T01:56:22;15.90;86.20
48604;DHT22;32708;51.212;6.788;2023-06-01T01:58:50;16.00;83.90
48604;DHT22;32708;51.212;6.788;2023-06-01T02:01:17;15.90;83.60
48604;DHT22;32708;51.212;6.788;2023-06-01T02:03:44;15.80;90.80
48604;DHT22;32708;51.212;6.788;2023-06-01T02:06:10;15.90;86.80
48604;DHT22;32708;51.212;6.788;2023-06-01T02:08:36;15.70;93.00
48604;DHT22;32708;51.212;6.788;2023-06-01T02:11:03;15.70;91.50
48604;DHT22;32708;51.212;6.788;2023-06-01T02:13:29;15.80;91.90
48604;DHT22;32708;51.212;6.788;2023-06-01T02:15:55;15.80;91.70
48604;DHT22;32708;51.212;6.788;2023-06-01T02:18:21;15.70;92.20
48604;DHT22;32708;51.212;6.788;2023-06-01T02:20:47;15.60;93.80
48604;DHT22;32708;51.212;6.788;2023-06-01T02:23:13;15.70;92.30
48604;DHT22;32708;51.212;6.788;2023-06-01T02:25:39;15.50;94.80
48604;DHT22;32708;51.212;6.788;2023-06-01T02:28:05;15.30;97.50
48604;DHT22;32708;51.212;6.788;2023-06-01T02:30:32;15.30;97.80
48604;DHT22;32708;51.212;6.788;2023-06-01T02:32:59;15.30;97.00
48604;DHT22;32708;51.212;6.788;2023-06-01T02:35:26;15.10;99.60
48604;DHT22;32708;51.212;6.788;2023-06-01T02:37:52;15.10;99.90
48604;DHT22;32708;51.212;6.788;2023-06-01T02:40:18;15.20;97.80
48604;DHT22;32708;51.212;6.788;2023-06-01T02:42:44;15.20;98.20
48604;DHT22;32708;51.212;6.788;2023-06-01T02:45:10;15.20;97.70
48604;DHT22;32708;51.212;6.788;2023-06-01T02:47:36;15.10;98.30
48604;DHT22;32708;51.212;6.788;2023-06-01T02:50:03;15.00;99.50
48604;DHT22;32708;51.212;6.788;2023-06-01T02:52:32;14.90;99.90
48604;DHT22;32708;51.212;6.788;2023-06-01T02:55:00;14.90;99.90
48604;DHT22;32708;51.212;6.788;2023-06-01T02:58:01;14.80;99.90
48604;DHT22;32708;51.212;6.788;2023-06-01T03:00:32;14.70;99.90
48604;DHT22;32708;51.212;6.788;2023-06-01T03:02:58;14.80;99.90
48604;DHT22;32708;51.212;6.788;2023-06-01T03:05:24;14.80;99.90
48604;DHT22;32708;51.212;6.788;2023-06-01T03:08:10;15.40;99.90
48604;DHT22;32708;51.212;6.788;2023-06-01T03:10:36;14.60;99.90
48604;DHT22;32708;51.212;6.788;2023-06-01T03:13:10;14.50;99.90
48604;DHT22;32708;51.212;6.788;2023-06-01T03:15:37;14.30;99.90
48604;DHT22;32708;51.212;6.788;2023-06-01T03:18:04;14.30;99.90
48604;DHT22;32708;51.212;6.788;2023-06-01T03:20:35;14.30;99.90
48604;DHT22;32708;51.212;6.788;2023-06-01T03:23:01;14.30;99.90
48604;DHT22;32708;51.212;6.788;2023-06-01T03:25:28;14.30;99.90
48604;DHT22;32708;51.212;6.788;2023-06-01T03:27:54;14.20;99.90
48604;DHT22;32708;51.212;6.788;2023-06-01T03:30:21;13.90;99.90
48604;DHT22;32708;51.212;6.788;2023-06-01T03:32:48;14.00;99.90
48604;DHT22;32708;51.212;6.788;2023-06-01T03:35:14;13.90;99.90
48604;DHT22;32708;51.212;6.788;2023-06-01T03:37:43;14.00;99.90
48604;DHT22;32708;51.212;6.788;2023-06-01T03:40:11;13.90;99.90
48604;DHT22;32708;51.212;6.788;2023-06-01T03:42:42;13.80;99.90
48604;DHT22;32708;51.212;6.788;2023-06-01T03:45:12;13.90;99.90
48604;DHT22;32708;51.212;6.788;2023-06-01T03:47:39;13.80;99.90
48604;DHT22;32708;51.212;6.788;2023-06-01T03:50:08;13.80;99.90
48604;DHT22;32708;51.212;6.788;2023-06-01T03:52:36;13.90;99.90
48604;DHT22;32708;51.212;6.788;2023-06-01T03:55:05;13.80;99.90
48604;DHT22;32708;51.212;6.788;2023-06-01T03:57:55;13.80;99.90
48604;DHT22;32708;51.212;6.788;2023-06-01T04:00:22;13.80;99.90
48604;DHT22;32708;51.212;6.788;2023-06-01T04:02:57;13.70;99.90
48604;DHT22;32708;51.212;6.788;2023-06-01T04:05:25;13.70;99.90
48604;DHT22;32708;51.212;6.788;2023-06-01T04:07:54;13.70;99.90
48604;DHT22;32708;51.212;6.788;2023-06-01T04:10:21;13.60;99.90
48604;DHT22;32708;51.212;6.788;2023-06-01T04:12:49;13.70;99.90
48604;DHT22;32708;51.212;6.788;2023-06-01T04:15:18;14.80;99.90
48604;DHT22;32708;51.212;6.788;2023-06-01T04:17:46;13.50;99.90
48604;DHT22;32708;51.212;6.788;2023-06-01T04:20:16;13.40;99.90
48604;DHT22;32708;51.212;6.788;2023-06-01T04:22:45;13.40;99.90
48604;DHT22;32708;51.212;6.788;2023-06-01T04:25:15;13.70;99.90
48604;DHT22;32708;51.212;6.788;2023-06-01T04:27:50;13.70;99.90
48604;DHT22;32708;51.212;6.788;2023-06-01T04:30:22;13.50;99.90
48604;DHT22;32708;51.212;6.788;2023-06-01T04:32:48;13.50;99.90
48604;DHT22;32708;51.212;6.788;2023-06-01T04:35:15;13.30;99.90
48604;DHT22;32708;51.212;6.788;2023-06-01T04:37:42;13.50;99.90
48604;DHT22;32708;51.212;6.788;2023-06-01T04:40:11;13.50;99.90
48604;DHT22;32708;51.212;6.788;2023-06-01T04:42:42;13.40;99.90
48604;DHT22;32708;51.212;6.788;2023-06-01T04:45:16;13.40;99.90
48604;DHT22;32708;51.212;6.788;2023-06-01T04:47:45;13.40;99.90
48604;DHT22;32708;51.212;6.788;2023-06-01T04:50:19;13.30;99.90
48604;DHT22;32708;51.212;6.788;2023-06-01T04:52:45;13.30;99.90
48604;DHT22;32708;51.212;6.788;2023-06-01T04:55:14;13.40;99.90
48604;DHT22;32708;51.212;6.788;2023-06-01T04:57:41;13.40;99.90
48604;DHT22;32708;51.212;6.788;2023-06-01T05:00:14;13.40;99.90
48604;DHT22;32708;51.212;6.788;2023-06-01T05:02:45;13.40;99.90
48604;DHT22;32708;51.212;6.788;2023-06-01T05:05:15;14.20;99.90
48604;DHT22;32708;51.212;6.788;2023-06-01T05:07:43;13.70;99.90
48604;DHT22;32708;51.212;6.788;2023-06-01T05:10:15;13.60;99.90
48604;DHT22;32708;51.212;6.788;2023-06-01T05:12:45;13.60;99.90
48604;DHT22;32708;51.212;6.788;2023-06-01T05:15:28;13.40;99.90
48604;DHT22;32708;51.212;6.788;2023-06-01T05:17:59;13.40;99.90
48604;DHT22;32708;51.212;6.788;2023-06-01T05:20:28;14.40;99.90
48604;DHT22;32708;51.212;6.788;2023-06-01T05:23:01;13.40;99.90
48604;DHT22;32708;51.212;6.788;2023-06-01T05:25:27;13.30;99.90
48604;DHT22;32708;51.212;6.788;2023-06-01T05:27:56;13.20;99.90
48604;DHT22;32708;51.212;6.788;2023-06-01T05:30:25;13.60;99.90
48604;DHT22;32708;51.212;6.788;2023-06-01T05:32:55;13.60;99.90
48604;DHT22;32708;51.212;6.788;2023-06-01T05:35:37;13.60;99.90
48604;DHT22;32708;51.212;6.788;2023-06-01T05:38:05;13.60;99.90
48604;DHT22;32708;51.212;6.788;2023-06-01T05:40:32;13.90;99.90
48604;DHT22;32708;51.212;6.788;2023-06-01T05:42:58;13.90;99.90
48604;DHT22;32708;51.212;6.788;2023-06-01T05:48:03;13.90;99.90
48604;DHT22;32708;51.212;6.788;2023-06-01T05:50:37;12.40;99.90
48604;DHT22;32708;51.212;6.788;2023-06-01T05:53:03;13.90;99.90
48604;DHT22;32708;51.212;6.788;2023-06-01T05:55:33;13.80;99.90
48604;DHT22;32708;51.212;6.788;2023-06-01T05:58:03;13.50;99.90
48604;DHT22;32708;51.212;6.788;2023-06-01T06:00:29;13.70;99.90
48604;DHT22;32708;51.212;6.788;2023-06-01T06:02:56;15.00;99.90
48604;DHT22;32708;51.212;6.788;2023-06-01T06:05:23;13.70;99.90
48604;DHT22;32708;51.212;6.788;2023-06-01T06:07:49;13.60;99.90
48604;DHT22;32708;51.212;6.788;2023-06-01T06:10:15;13.60;99.90
48604;DHT22;32708;51.212;6.788;2023-06-01T06:12:56;13.70;99.90
48604;DHT22;32708;51.212;6.788;2023-06-01T06:15:23;13.80;99.90
48604;DHT22;32708;51.212;6.788;2023-06-01T06:17:49;12.60;99.90
48604;DHT22;32708;51.212;6.788;2023-06-01T06:20:15;13.40;99.90
48604;DHT22;32708;51.212;6.788;2023-06-01T06:22:42;13.60;99.90
48604;DHT22;32708;51.212;6.788;2023-06-01T06:25:09;13.60;99.50
48604;DHT22;32708;51.212;6.788;2023-06-01T06:27:38;13.60;99.90
48604;DHT22;32708;51.212;6.788;2023-06-01T06:30:07;13.50;98.90
48604;DHT22;32708;51.212;6.788;2023-06-01T06:32:34;13.50;99.90
48604;DHT22;32708;51.212;6.788;2023-06-01T06:35:01;14.30;99.70
48604;DHT22;32708;51.212;6.788;2023-06-01T06:37:28;13.80;98.00
48604;DHT22;32708;51.212;6.788;2023-06-01T06:39:56;13.70;95.90
48604;DHT22;32708;51.212;6.788;2023-06-01T06:42:23;13.90;92.50
48604;DHT22;32708;51.212;6.788;2023-06-01T06:44:50;13.90;92.10
48604;DHT22;32708;51.212;6.788;2023-06-01T06:47:16;14.00;90.20
48604;DHT22;32708;51.212;6.788;2023-06-01T06:49:45;14.20;80.20
48604;DHT22;32708;51.212;6.788;2023-06-01T06:52:12;14.10;68.70
48604;DHT22;32708;51.212;6.788;2023-06-01T06:54:42;14.00;79.20
48604;DHT22;32708;51.212;6.788;2023-06-01T06:57:09;13.70;89.70
48604;DHT22;32708;51.212;6.788;2023-06-01T06:59:38;13.90;81.70
48604;DHT22;32708;51.212;6.788;2023-06-01T07:02:04;14.10;67.10
48604;DHT22;32708;51.212;6.788;2023-06-01T07:04:31;14.20;62.70
48604;DHT22;32708;51.212;6.788;2023-06-01T07:06:57;14.30;54.70
48604;DHT22;32708;51.212;6.788;2023-06-01T07:09:23;14.50;44.30
48604;DHT22;32708;51.212;6.788;2023-06-01T07:11:49;14.30;44.00
48604;DHT22;32708;51.212;6.788;2023-06-01T07:14:15;14.50;26.60
48604;DHT22;32708;51.212;6.788;2023-06-01T07:16:42;14.30;31.70
48604;DHT22;32708;51.212;6.788;2023-06-01T07:19:08;14.60;21.80
48604;DHT22;32708;51.212;6.788;2023-06-01T07:21:34;15.00;1.00
48604;DHT22;32708;51.212;6.788;2023-06-01T07:24:02;15.60;1.00
48604;DHT22;32708;51.212;6.788;2023-06-01T07:26:29;16.20;99.90
48604;DHT22;32708;51.212;6.788;2023-06-01T07:28:56;16.60;99.90
48604;DHT22;32708;51.212;6.788;2023-06-01T07:31:23;16.80;99.90
48604;DHT22;32708;51.212;6.788;2023-06-01T07:33:50;17.00;99.90
48604;DHT22;32708;51.212;6.788;2023-06-01T07:36:20;16.60;99.90
48604;DHT22;32708;51.212;6.788;2023-06-01T07:38:49;16.70;90.50
48604;DHT22;32708;51.212;6.788;2023-06-01T07:41:16;17.10;99.90
48604;DHT22;32708;51.212;6.788;2023-06-01T07:43:42;17.50;1.00
48604;DHT22;32708;51.212;6.788;2023-06-01T07:46:08;18.10;92.90
48604;DHT22;32708;51.212;6.788;2023-06-01T07:48:35;17.70;55.70
48604;DHT22;32708;51.212;6.788;2023-06-01T07:51:05;17.40;1.00
48604;DHT22;32708;51.212;6.788;2023-06-01T07:53:32;17.30;1.00
48604;DHT22;32708;51.212;6.788;2023-06-01T07:55:58;16.90;1.00
48604;DHT22;32708;51.212;6.788;2023-06-01T07:58:25;17.40;99.90
48604;DHT22;32708;51.212;6.788;2023-06-01T08:00:54;16.70;99.90
48604;DHT22;32708;51.212;6.788;2023-06-01T08:03:20;17.00;1.00
48604;DHT22;32708;51.212;6.788;2023-06-01T08:05:50;17.20;33.10
48604;DHT22;32708;51.212;6.788;2023-06-01T08:08:25;17.50;99.90
48604;DHT22;32708;51.212;6.788;2023-06-01T08:10:51;17.60;32.40
48604;DHT22;32708;51.212;6.788;2023-06-01T08:13:18;17.20;1.00
48604;DHT22;32708;51.212;6.788;2023-06-01T08:15:47;17.70;99.90
48604;DHT22;32708;51.212;6.788;2023-06-01T08:18:16;18.10;99.90
48604;DHT22;32708;51.212;6.788;2023-06-01T08:20:42;17.90;99.90
48604;DHT22;32708;51.212;6.788;2023-06-01T08:23:10;18.30;1.00
48604;DHT22;32708;51.212;6.788;2023-06-01T08:25:36;18.40;99.90
48604;DHT22;32708;51.212;6.788;2023-06-01T08:28:02;18.30;99.90
48604;DHT22;32708;51.212;6.788;2023-06-01T08:30:28;18.50;99.90
48604;DHT22;32708;51.212;6.788;2023-06-01T08:32:55;19.20;68.40
48604;DHT22;32708;51.212;6.788;2023-06-01T08:35:21;19.60;99.90
48604;DHT22;32708;51.212;6.788;2023-06-01T08:37:47;19.90;99.90
48604;DHT22;32708;51.212;6.788;2023-06-01T08:40:13;19.60;99.90
48604;DHT22;32708;51.212;6.788;2023-06-01T08:42:54;20.40;64.10
48604;DHT22;32708;51.212;6.788;2023-06-01T08:45:25;20.70;1.00
48604;DHT22;32708;51.212;6.788;2023-06-01T08:47:58;20.40;1.00
48604;DHT22;32708;51.212;6.788;2023-06-01T08:50:27;19.80;1.00
48604;DHT22;32708;51.212;6.788;2023-06-01T08:52:54;19.50;19.90
48604;DHT22;32708;51.212;6.788;2023-06-01T08:55:24;19.20;99.90
48604;DHT22;32708;51.212;6.788;2023-06-01T08:57:50;19.70;91.30
48604;DHT22;32708;51.212;6.788;2023-06-01T09:00:18;19.60;96.40
48604;DHT22;32708;51.212;6.788;2023-06-01T09:02:45;20.30;1.00
48604;DHT22;32708;51.212;6.788;2023-06-01T09:05:12;20.40;1.00
48604;DHT22;32708;51.212;6.788;2023-06-01T09:07:39;20.50;1.00
48604;DHT22;32708;51.212;6.788;2023-06-01T09:10:07;20.20;2.30
48604;DHT22;32708;51.212;6.788;2023-06-01T09:12:33;20.50;1.00
48604;DHT22;32708;51.212;6.788;2023-06-01T09:15:14;20.90;1.00
48604;DHT22;32708;51.212;6.788;2023-06-01T09:17:46;20.80;1.00
48604;DHT22;32708;51.212;6.788;2023-06-01T09:20:27;20.40;1.00
48604;DHT22;32708;51.212;6.788;2023-06-01T09:22:55;20.10;1.00
48604;DHT22;32708;51.212;6.788;2023-06-01T09:25:29;19.70;1.00
48604;DHT22;32708;51.212;6.788;2023-06-01T09:27:59;20.00;1.00
48604;DHT22;32708;51.212;6.788;2023-06-01T09:30:41;20.20;1.00
48604;DHT22;32708;51.212;6.788;2023-06-01T09:33:12;19.90;1.00
48604;DHT22;32708;51.212;6.788;2023-06-01T09:35:45;20.20;1.00
48604;DHT22;32708;51.212;6.788;2023-06-01T09:38:22;20.30;1.00
48604;DHT22;32708;51.212;6.788;2023-06-01T09:41:01;20.80;1.00
48604;DHT22;32708;51.212;6.788;2023-06-01T09:43:29;20.90;99.90
48604;DHT22;32708;51.212;6.788;2023-06-01T09:46:07;20.80;99.90
48604;DHT22;32708;51.212;6.788;2023-06-01T09:48:34;20.70;99.90
48604;DHT22;32708;51.212;6.788;2023-06-01T09:51:01;20.10;99.90
48604;DHT22;32708;51.212;6.788;2023-06-01T09:53:27;20.40;99.90
48604;DHT22;32708;51.212;6.788;2023-06-01T09:56:00;20.30;99.90
48604;DHT22;32708;51.212;6.788;2023-06-01T09:58:28;20.60;99.90
48604;DHT22;32708;51.212;6.788;2023-06-01T10:00:54;20.50;99.90
48604;DHT22;32708;51.212;6.788;2023-06-01T10:03:23;20.80;99.90
48604;DHT22;32708;51.212;6.788;2023-06-01T10:05:51;21.00;99.90
48604;DHT22;32708;51.212;6.788;2023-06-01T10:08:18;20.80;99.90
48604;DHT22;32708;51.212;6.788;2023-06-01T10:10:47;21.10;99.90
48604;DHT22;32708;51.212;6.788;2023-06-01T10:13:15;21.30;99.90
48604;DHT22;32708;51.212;6.788;2023-06-01T10:15:41;20.80;99.90
48604;DHT22;32708;51.212;6.788;2023-06-01T10:18:08;21.00;99.90
48604;DHT22;32708;51.212;6.788;2023-06-01T10:20:38;20.40;99.90
48604;DHT22;32708;51.212;6.788;2023-06-01T10:23:05;20.50;99.90
48604;DHT22;32708;51.212;6.788;2023-06-01T10:25:39;20.80;99.90
48604;DHT22;32708;51.212;6.788;2023-06-01T10:28:11;20.80;99.90
48604;DHT22;32708;51.212;6.788;2023-06-01T10:30:39;20.70;99.90
48604;DHT22;32708;51.212;6.788;2023-06-01T10:33:06;20.30;99.90
48604;DHT22;32708;51.212;6.788;2023-06-01T10:35:52;20.40;99.90
48604;DHT22;32708;51.212;6.788;2023-06-01T10:38:22;20.90;99.90
48604;DHT22;32708;51.212;6.788;2023-06-01T10:40:49;21.30;99.90
48604;DHT22;32708;51.212;6.788;2023-06-01T10:46:37;21.30;99.90
48604;DHT22;32708;51.212;6.788;2023-06-01T10:49:04;21.50;99.90
48604;DHT22;32708;51.212;6.788;2023-06-01T10:51:31;21.60;99.90
48604;DHT22;32708;51.212;6.788;2023-06-01T10:54:23;21.70;99.90
48604;DHT22;32708;51.212;6.788;2023-06-01T10:57:19;22.00;99.90
48604;DHT22;32708;51.212;6.788;2023-06-01T11:00:17;22.30;99.90
48604;DHT22;32708;51.212;6.788;2023-06-01T11:05:47;21.40;99.90
48604;DHT22;32708;51.212;6.788;2023-06-01T11:13:32;22.50;99.90
48604;DHT22;32708;51.212;6.788;2023-06-01T11:18:43;22.90;99.90
48604;DHT22;32708;51.212;6.788;2023-06-01T11:21:19;22.60;99.90
48604;DHT22;32708;51.212;6.788;2023-06-01T11:23:48;22.90;99.90
48604;DHT22;32708;51.212;6.788;2023-06-01T11:26:16;22.30;99.90
48604;DHT22;32708;51.212;6.788;2023-06-01T11:28:48;22.50;99.90
48604;DHT22;32708;51.212;6.788;2023-06-01T11:31:16;22.40;99.90
48604;DHT22;32708;51.212;6.788;2023-06-01T11:33:52;22.70;99.90
48604;DHT22;32708;51.212;6.788;2023-06-01T11:36:20;22.80;99.90
48604;DHT22;32708;51.212;6.788;2023-06-01T11:38:49;22.70;99.90
48604;DHT22;32708;51.212;6.788;2023-06-01T11:41:18;22.80;99.90
48604;DHT22;32708;51.212;6.788;2023-06-01T11:43:53;22.80;99.90
48604;DHT22;32708;51.212;6.788;2023-06-01T11:46:24;23.20;99.90
48604;DHT22;32708;51.212;6.788;2023-06-01T11:49:03;22.70;99.90
48604;DHT22;32708;51.212;6.788;2023-06-01T11:52:08;22.80;99.90
48604;DHT22;32708;51.212;6.788;2023-06-01T11:54:35;22.90;99.90
48604;DHT22;32708;51.212;6.788;2023-06-01T11:57:04;23.30;99.90
48604;DHT22;32708;51.212;6.788;2023-06-01T11:59:40;23.30;99.90
48604;DHT22;32708;51.212;6.788;2023-06-01T12:02:21;23.30;99.90
48604;DHT22;32708;51.212;6.788;2023-06-01T12:05:01;23.60;99.90
48604;DHT22;32708;51.212;6.788;2023-06-01T12:10:22;23.20;99.90
48604;DHT22;32708;51.212;6.788;2023-06-01T12:12:50;23.30;99.90
48604;DHT22;32708;51.212;6.788;2023-06-01T12:15:18;23.70;99.90
48604;DHT22;32708;51.212;6.788;2023-06-01T12:17:53;23.40;99.90
48604;DHT22;32708;51.212;6.788;2023-06-01T12:23:14;23.70;99.90
48604;DHT22;32708;51.212;6.788;2023-06-01T12:26:08;23.70;99.90
48604;DHT22;32708;51.212;6.788;2023-06-01T12:29:06;23.60;99.90
48604;DHT22;32708;51.212;6.788;2023-06-01T12:31:33;23.80;99.90
48604;DHT22;32708;51.212;6.788;2023-06-01T12:33:59;23.80;99.90
48604;DHT22;32708;51.212;6.788;2023-06-01T12:36:34;24.10;99.90
48604;DHT22;32708;51.212;6.788;2023-06-01T12:39:03;24.10;99.90
48604;DHT22;32708;51.212;6.788;2023-06-01T12:41:30;23.60;99.90
48604;DHT22;32708;51.212;6.788;2023-06-01T12:43:57;23.80;99.90
48604;DHT22;32708;51.212;6.788;2023-06-01T12:57:12;23.70;99.90
48604;DHT22;32708;51.212;6.788;2023-06-01T12:59:39;23.60;99.90
48604;DHT22;32708;51.212;6.788;2023-06-01T13:02:05;23.80;99.90
48604;DHT22;32708;51.212;6.788;2023-06-01T13:04:31;23.80;99.90
48604;DHT22;32708;51.212;6.788;2023-06-01T13:06:57;23.50;99.90
48604;DHT22;32708;51.212;6.788;2023-06-01T13:09:58;23.80;99.90
48604;DHT22;32708;51.212;6.788;2023-06-01T13:12:26;24.20;99.90
48604;DHT22;32708;51.212;6.788;2023-06-01T13:15:06;23.80;99.90
48604;DHT22;32708;51.212;6.788;2023-06-01T13:26:11;24.30;99.90
48604;DHT22;32708;51.212;6.788;2023-06-01T13:28:37;24.30;99.90
48604;DHT22;32708;51.212;6.788;2023-06-01T13:31:04;24.20;99.90
48604;DHT22;32708;51.212;6.788;2023-06-01T13:33:30;24.40;99.90
48604;DHT22;32708;51.212;6.788;2023-06-01T13:35:58;23.80;99.90
48604;DHT22;32708;51.212;6.788;2023-06-01T13:38:24;23.70;99.90
48604;DHT22;32708;51.212;6.788;2023-06-01T13:41:03;24.00;99.90
48604;DHT22;32708;51.212;6.788;2023-06-01T13:43:29;24.30;99.90
48604;DHT22;32708;51.212;6.788;2023-06-01T13:45:55;23.80;99.90
48604;DHT22;32708;51.212;6.788;2023-06-01T13:48:22;22.90;99.90
48604;DHT22;32708;51.212;6.788;2023-06-01T13:50:48;22.90;99.90
48604;DHT22;32708;51.212;6.788;2023-06-01T13:53:14;22.60;99.90
48604;DHT22;32708;51.212;6.788;2023-06-01T13:55:40;22.50;99.90
48604;DHT22;32708;51.212;6.788;2023-06-01T13:58:06;22.50;99.90
48604;DHT22;32708;51.212;6.788;2023-06-01T14:00:33;22.70;99.90
48604;DHT22;32708;51.212;6.788;2023-06-01T14:02:59;22.70;99.90
48604;DHT22;32708;51.212;6.788;2023-06-01T14:05:25;22.80;99.90
48604;DHT22;32708;51.212;6.788;2023-06-01T14:07:52;22.40;99.90
48604;DHT22;32708;51.212;6.788;2023-06-01T14:10:18;22.90;99.90
48604;DHT22;32708;51.212;6.788;2023-06-01T14:12:44;23.00;99.90
48604;DHT22;32708;51.212;6.788;2023-06-01T14:15:11;23.20;99.90
48604;DHT22;32708;51.212;6.788;2023-06-01T14:17:37;22.70;99.90
48604;DHT22;32708;51.212;6.788;2023-06-01T14:20:03;22.90;99.90
48604;DHT22;32708;51.212;6.788;2023-06-01T14:22:31;23.10;99.90
48604;DHT22;32708;51.212;6.788;2023-06-01T14:24:57;23.00;99.90
48604;DHT22;32708;51.212;6.788;2023-06-01T14:27:23;23.30;99.90
48604;DHT22;32708;51.212;6.788;2023-06-01T14:29:50;23.30;99.90
48604;DHT22;32708;51.212;6.788;2023-06-01T14:32:17;23.20;99.90
48604;DHT22;32708;51.212;6.788;2023-06-01T14:34:43;23.30;99.90
48604;DHT22;32708;51.212;6.788;2023-06-01T14:37:09;23.40;99.90
48604;DHT22;32708;51.212;6.788;2023-06-01T14:39:37;23.70;99.90
48604;DHT22;32708;51.212;6.788;2023-06-01T14:42:04;23.40;99.90
48604;DHT22;32708;51.212;6.788;2023-06-01T14:44:31;22.90;99.90
48604;DHT22;32708;51.212;6.788;2023-06-01T14:46:57;22.70;99.90
48604;DHT22;32708;51.212;6.788;2023-06-01T14:49:23;22.70;99.90
48604;DHT22;32708;51.212;6.788;2023-06-01T14:51:49;22.80;99.90
48604;DHT22;32708;51.212;6.788;2023-06-01T14:54:15;22.80;99.90
48604;DHT22;32708;51.212;6.788;2023-06-01T14:56:42;22.60;99.90
48604;DHT22;32708;51.212;6.788;2023-06-01T14:59:08;22.40;99.90
48604;DHT22;32708;51.212;6.788;2023-06-01T15:01:34;22.40;99.90
48604;DHT22;32708;51.212;6.788;2023-06-01T15:04:02;22.30;99.90
48604;DHT22;32708;51.212;6.788;2023-06-01T15:06:28;22.40;99.90
48604;DHT22;32708;51.212;6.788;2023-06-01T15:08:55;22.20;99.90
48604;DHT22;32708;51.212;6.788;2023-06-01T15:11:21;22.20;99.90
48604;DHT22;32708;51.212;6.788;2023-06-01T15:13:48;22.00;99.90
48604;DHT22;32708;51.212;6.788;2023-06-01T15:16:17;22.40;99.90
48604;DHT22;32708;51.212;6.788;2023-06-01T15:18:43;22.30;99.90
48604;DHT22;32708;51.212;6.788;2023-06-01T15:21:10;22.20;99.90
48604;DHT22;32708;51.212;6.788;2023-06-01T15:23:36;22.00;99.90
48604;DHT22;32708;51.212;6.788;2023-06-01T15:26:03;22.30;99.90
48604;DHT22;32708;51.212;6.788;2023-06-01T15:28:30;22.20;99.90
48604;DHT22;32708;51.212;6.788;2023-06-01T15:30:57;22.10;99.90
48604;DHT22;32708;51.212;6.788;2023-06-01T15:33:23;22.10;99.90
48604;DHT22;32708;51.212;6.788;2023-06-01T15:35:49;22.10;99.90
48604;DHT22;32708;51.212;6.788;2023-06-01T15:38:15;22.00;99.90
48604;DHT22;32708;51.212;6.788;2023-06-01T15:40:42;21.70;99.90
48604;DHT22;32708;51.212;6.788;2023-06-01T15:43:08;21.70;99.90
48604;DHT22;32708;51.212;6.788;2023-06-01T15:45:34;21.50;99.90
48604;DHT22;32708;51.212;6.788;2023-06-01T15:48:01;21.30;99.90
48604;DHT22;32708;51.212;6.788;2023-06-01T15:50:27;21.30;99.90
48604;DHT22;32708;51.212;6.788;2023-06-01T15:52:53;21.50;99.90
48604;DHT22;32708;51.212;6.788;2023-06-01T15:55:20;21.40;99.90
48604;DHT22;32708;51.212;6.788;2023-06-01T15:57:46;21.20;99.90
48604;DHT22;32708;51.212;6.788;2023-06-01T16:00:13;21.30;99.90
48604;DHT22;32708;51.212;6.788;2023-06-01T16:02:40;21.50;99.90
48604;DHT22;32708;51.212;6.788;2023-06-01T16:05:07;21.60;99.90
48604;DHT22;32708;51.212;6.788;2023-06-01T16:07:33;21.40;99.90
48604;DHT22;32708;51.212;6.788;2023-06-01T16:09:59;21.50;99.90
48604;DHT22;32708;51.212;6.788;2023-06-01T16:12:25;21.20;99.90
48604;DHT22;32708;51.212;6.788;2023-06-01T16:14:52;21.50;99.90
48604;DHT22;32708;51.212;6.788;2023-06-01T16:17:18;21.10;99.90
48604;DHT22;32708;51.212;6.788;2023-06-01T16:19:44;21.20;99.90
48604;DHT22;32708;51.212;6.788;2023-06-01T16:22:10;21.10;99.90
48604;DHT22;32708;51.212;6.788;2023-06-01T16:24:37;21.30;99.90
48604;DHT22;32708;51.212;6.788;2023-06-01T16:27:04;21.30;99.90
48604;DHT22;32708;51.212;6.788;2023-06-01T16:29:31;21.30;99.90
48604;DHT22;32708;51.212;6.788;2023-06-01T16:31:57;21.30;99.90
48604;DHT22;32708;51.212;6.788;2023-06-01T16:34:23;21.40;99.90
48604;DHT22;32708;51.212;6.788;2023-06-01T16:36:49;21.40;99.90